Time;durP1;ratioP1;P1;durP2;ratioP2;P2;SDS_P1;SDS_P2;PMS_P1;PMS_P2;Temp;Humidity;BMP_temperature;BMP_pressure;BME280_temperature;BME280_humidity;BME280_pressure;Samples;Min_cycle;Max_cycle;Signal;HPM_P1;HPM_P2
2023/10/16 00:03:31;;;;;;;3.50;1.25;;;;;;;20.05;46.99;102362.91;16120126;19;130720;-48
2023/10/16 00:08:57;;;;;;;2.28;0.88;;;;;;;20.03;46.83;102368.66;16121007;19;130279;-50
2023/10/16 00:14:23;;;;;;;4.20;1.13;;;;;;;20.01;46.79;102356.91;16118679;19;129409;-51
2023/10/16 00:19:46;;;;;;;3.88;0.90;;;;;;;19.99;47.01;102359.94;16119817;19;130381;-46
2023/10/16 00:25:08;;;;;;;4.05;1.08;;;;;;;19.98;47.02;102362.91;16118602;19;130829;-50
2023/10/16 00:30:31;;;;;;;1.63;0.70;;;;;;;19.96;47.03;102362.28;16124511;19;132463;-48
2023/10/16 00:35:53;;;;;;;3.85;0.95;;;;;;;19.93;47.19;102360.78;16117344;19;130449;-48
2023/10/16 00:46:37;;;;;;;3.30;0.90;;;;;;;19.89;47.14;102359.53;16119107;19;131101;-47
2023/10/16 00:51:59;;;;;;;2.25;0.90;;;;;;;19.89;46.95;102353.09;16116626;19;131814;-47
2023/10/16 00:57:27;;;;;;;2.75;1.00;;;;;;;19.88;46.70;102351.41;16114078;19;130155;-46
2023/10/16 01:02:49;;;;;;;2.90;0.85;;;;;;;19.84;46.95;102348.19;16111679;19;129889;-50
2023/10/16 01:08:12;;;;;;;3.95;1.25;;;;;;;19.82;46.73;102347.56;16108729;19;130226;-46
2023/10/16 01:13:33;;;;;;;3.10;1.58;;;;;;;19.81;46.76;102340.34;16116505;19;129920;-54
2023/10/16 01:19:00;;;;;;;3.15;0.82;;;;;;;19.78;46.84;102336.06;16114211;19;131733;-48
2023/10/16 01:24:24;;;;;;;4.28;0.93;;;;;;;19.77;46.86;102328.78;16119042;19;130874;-46
2023/10/16 01:29:47;;;;;;;3.30;1.35;;;;;;;19.76;47.16;102312.38;16121277;19;131131;-47
2023/10/16 01:35:08;;;;;;;4.13;1.05;;;;;;;19.73;46.77;102310.03;16117193;19;129855;-52
2023/10/16 01:40:37;;;;;;;2.42;0.80;;;;;;;19.72;46.97;102317.50;16114260;19;131812;-48
2023/10/16 01:46:12;;;;;;;2.55;0.85;;;;;;;19.73;46.92;102315.56;16110844;19;130517;-51
2023/10/16 01:51:40;;;;;;;1.23;0.60;;;;;;;19.66;47.16;102316.47;16112456;19;130484;-46
2023/10/16 01:57:02;;;;;;;1.48;0.90;;;;;;;19.65;47.02;102317.53;16115632;19;131513;-51
2023/10/16 02:02:25;;;;;;;1.63;0.55;;;;;;;19.64;46.78;102306.63;16111189;19;131427;-50
2023/10/16 02:07:47;;;;;;;2.30;0.70;;;;;;;19.62;46.77;102308.81;16113462;19;129934;-50
2023/10/16 02:13:10;;;;;;;2.17;0.63;;;;;;;19.61;46.74;102312.66;16116797;19;129555;-50
2023/10/16 02:18:40;;;;;;;3.13;0.70;;;;;;;19.58;47.15;102311.13;16113286;19;129654;-50
2023/10/16 02:24:03;;;;;;;2.35;0.75;;;;;;;19.56;46.92;102321.63;16110547;19;130418;-50
2023/10/16 02:29:28;;;;;;;0.68;0.63;;;;;;;19.54;46.72;102315.44;16112017;19;132824;-49
2023/10/16 02:34:50;;;;;;;2.33;0.75;;;;;;;19.53;47.13;102316.50;16113136;19;130954;-52
2023/10/16 02:40:17;;;;;;;2.35;1.02;;;;;;;19.52;46.93;102314.81;16112035;19;129290;-47
2023/10/16 02:45:51;;;;;;;2.42;0.70;;;;;;;19.51;47.12;102302.00;16108564;19;130578;-50
2023/10/16 02:51:16;;;;;;;1.52;0.70;;;;;;;19.49;46.78;102309.69;16108511;19;129860;-51
2023/10/16 02:56:38;;;;;;;2.22;0.80;;;;;;;19.47;47.14;102303.50;16110354;19;130794;-46
2023/10/16 03:02:04;;;;;;;1.13;0.60;;;;;;;19.45;46.78;102292.63;16110374;19;131959;-53
2023/10/16 03:07:26;;;;;;;2.38;0.80;;;;;;;19.44;47.12;102290.06;16108652;19;131606;-49
2023/10/16 03:12:52;;;;;;;1.08;0.60;;;;;;;19.43;46.81;102280.88;16110558;19;130944;-49
2023/10/16 03:18:22;;;;;;;;;;;;;;;19.38;46.72;102273.22;16106590;19;129684;-51
2023/10/16 03:23:46;;;;;;;1.02;0.50;;;;;;;19.40;46.90;102272.97;16108291;19;130105;-47
2023/10/16 03:29:08;;;;;;;1.52;0.75;;;;;;;19.36;46.93;102261.47;16109627;19;129237;-48
2023/10/16 03:34:31;;;;;;;1.98;0.90;;;;;;;19.37;46.81;102274.28;16109128;19;130808;-51
2023/10/16 03:39:56;;;;;;;1.08;0.70;;;;;;;19.35;46.72;102276.41;16105899;19;132037;-51
2023/10/16 03:45:20;;;;;;;1.97;0.60;;;;;;;19.34;46.62;102279.44;16101590;19;131937;-46
2023/10/16 03:50:43;;;;;;;0.98;0.60;;;;;;;19.32;46.65;102276.84;16105148;19;129457;-52
2023/10/16 03:56:05;;;;;;;0.93;0.60;;;;;;;19.31;47.06;102275.19;16107995;19;131021;-51
2023/10/16 04:01:27;;;;;;;1.95;0.57;;;;;;;19.30;46.63;102279.00;16104878;19;132022;-51
2023/10/16 04:06:49;;;;;;;1.25;0.80;;;;;;;19.29;47.01;102271.75;16104285;19;130795;-47
2023/10/16 04:12:17;;;;;;;1.52;0.60;;;;;;;19.27;46.87;102273.91;16106733;19;130460;-51
2023/10/16 04:17:39;;;;;;;1.08;0.60;;;;;;;19.25;47.06;102276.03;16105780;19;131426;-48
2023/10/16 04:23:04;;;;;;;1.52;0.65;;;;;;;19.27;47.02;102270.25;16105075;19;131669;-52
2023/10/16 04:28:29;;;;;;;1.00;0.60;;;;;;;19.23;47.06;102255.97;16111870;19;131014;-50
2023/10/16 04:34:13;;;;;;;1.13;0.80;;;;;;;19.22;47.07;102259.81;16118209;19;130330;-51
2023/10/16 04:50:40;;;;;;;1.13;0.60;;;;;;;19.17;46.97;102246.56;16117825;19;131212;-47
2023/10/16 05:02:16;;;;;;;0.98;0.60;;;;;;;19.16;46.73;102246.78;16121239;19;130480;-50
2023/10/16 05:07:45;;;;;;;2.25;0.63;;;;;;;19.16;46.55;102244.84;16115108;19;129832;-61
2023/10/16 05:18:51;;;;;;;1.33;0.77;;;;;;;19.21;46.91;102224.81;16116062;19;130881;-50
2023/10/16 06:15:23;;;;;;;1.88;0.65;;;;;;;19.62;44.94;102231.06;16114399;19;131011;-48
2023/10/16 06:20:45;;;;;;;4.25;0.75;;;;;;;19.59;45.01;102221.25;16113249;19;129563;-50
2023/10/16 06:26:08;;;;;;;1.33;0.40;;;;;;;19.58;45.04;102225.09;16115582;19;130299;-51
2023/10/16 06:31:35;;;;;;;2.92;0.60;;;;;;;19.57;44.90;102228.94;16113166;19;131398;-50
2023/10/16 06:36:57;;;;;;;1.90;0.60;;;;;;;19.59;44.89;102232.34;16114762;19;129284;-51
2023/10/16 06:42:19;;;;;;;6.32;0.50;;;;;;;19.58;44.89;102225.09;16107349;19;129911;-49
2023/10/16 06:47:47;;;;;;;1.40;0.57;;;;;;;19.57;44.84;102223.38;16113287;19;131703;-49
2023/10/16 06:53:09;;;;;;;1.85;0.80;;;;;;;19.56;44.88;102220.84;16111506;19;129508;-49
2023/10/16 06:58:34;;;;;;;4.07;1.08;;;;;;;19.50;44.97;102228.13;16108140;19;129889;-51
2023/10/16 07:03:56;;;;;;;1.13;0.70;;;;;;;19.47;44.90;102242.44;16106202;19;129647;-47
2023/10/16 07:09:21;;;;;;;3.57;0.97;;;;;;;19.42;44.77;102226.44;16113338;19;132624;-50
2023/10/16 07:14:55;;;;;;;3.25;0.88;;;;;;;19.41;44.88;102226.69;16114514;19;129482;-48
2023/10/16 07:20:27;;;;;;;2.22;0.80;;;;;;;19.39;44.81;102221.31;16110610;19;130979;-51
2023/10/16 07:25:54;;;;;;;0.95;0.63;;;;;;;19.37;45.26;102217.94;16113904;19;129576;-49
2023/10/16 07:31:16;;;;;;;3.30;0.70;;;;;;;19.37;44.95;102229.88;16110698;19;129752;-51
2023/10/16 07:36:38;;;;;;;6.72;1.20;;;;;;;19.38;45.05;102228.81;16108772;19;129166;-47
2023/10/16 07:42:03;;;;;;;6.38;0.98;;;;;;;19.43;45.00;102221.75;16114678;19;129451;-47
2023/10/16 07:47:25;;;;;;;11.03;1.27;;;;;;;19.50;44.78;102230.91;16107742;19;130888;-49
2023/10/16 07:52:48;;;;;;;9.40;1.05;;;;;;;19.81;44.26;102229.25;16111912;19;130835;-50
2023/10/16 07:58:16;;;;;;;4.75;0.85;;;;;;;20.60;42.60;102238.09;16109497;19;129991;-46
2023/10/16 08:03:38;;;;;;;6.30;1.05;;;;;;;21.61;40.88;102236.16;16114910;19;130839;-48
2023/10/16 08:14:44;;;;;;;8.07;1.05;;;;;;;23.43;38.13;102245.97;16125083;19;131267;-47
2023/10/16 08:20:08;;;;;;;5.30;1.00;;;;;;;24.06;36.78;102239.66;16122926;19;132473;-49
2023/10/16 08:25:34;;;;;;;6.18;0.95;;;;;;;24.06;36.70;102236.88;16122886;19;130320;-48
2023/10/16 08:30:57;;;;;;;2.42;1.10;;;;;;;24.32;36.02;102235.38;16123544;19;129394;-46
2023/10/16 08:36:20;;;;;;;4.25;1.17;;;;;;;23.96;36.26;102232.78;16119815;19;131358;-48
2023/10/16 08:42:01;;;;;;;2.15;0.82;;;;;;;22.86;37.74;102238.28;16121769;19;129528;-45
2023/10/16 08:47:24;;;;;;;3.75;0.90;;;;;;;22.06;39.49;102238.50;16118637;19;130437;-48
2023/10/16 08:52:50;;;;;;;2.35;0.77;;;;;;;21.51;40.14;102232.03;16122583;19;130505;-47
2023/10/16 08:58:12;;;;;;;2.88;0.75;;;;;;;21.11;41.08;102238.03;16119493;19;129532;-50
2023/10/16 09:03:49;;;;;;;2.00;0.65;;;;;;;20.86;41.22;102232.53;16121168;19;130399;-47
2023/10/16 09:09:16;;;;;;;0.95;0.60;;;;;;;20.68;41.60;102224.97;16118600;19;135716;-49
2023/10/16 09:14:40;;;;;;;1.90;0.98;;;;;;;20.51;42.07;102224.69;16119345;19;129987;-50
2023/10/16 09:20:13;;;;;;;1.83;0.60;;;;;;;20.40;41.85;102220.75;16118569;19;129636;-51
2023/10/16 09:25:35;;;;;;;4.10;1.00;;;;;;;20.30;42.62;102226.81;16118931;19;129351;-48
2023/10/16 09:31:02;;;;;;;2.75;0.98;;;;;;;20.22;42.82;102229.88;16117379;19;129536;-45
2023/10/16 09:36:36;;;;;;;1.92;0.73;;;;;;;20.14;43.25;102229.03;16120354;19;129554;-48
2023/10/16 09:41:59;;;;;;;3.25;1.00;;;;;;;20.09;43.42;102230.81;16118753;19;129642;-47
2023/10/16 09:47:26;;;;;;;2.58;0.55;;;;;;;20.05;43.30;102226.78;16116907;19;131253;-45
2023/10/16 09:52:49;;;;;;;1.35;0.80;;;;;;;20.01;43.30;102222.75;16119658;19;130374;-52
2023/10/16 09:58:11;;;;;;;4.40;0.73;;;;;;;19.97;43.45;102216.75;16119183;19;133533;-47
2023/10/16 10:03:36;;;;;;;1.83;0.80;;;;;;;19.93;43.26;102209.94;16117176;19;129684;-49
2023/10/16 10:14:38;;;;;;;2.65;0.90;;;;;;;19.84;43.62;102209.34;16112652;19;130421;-48
2023/10/16 10:20:09;;;;;;;0.55;0.40;;;;;;;19.83;43.89;102210.41;16116097;19;129520;-48
2023/10/16 10:25:38;;;;;;;2.90;0.75;;;;;;;19.97;43.80;102217.59;16117698;19;129844;-46
2023/10/16 10:31:04;;;;;;;2.67;0.80;;;;;;;20.11;43.37;102211.97;16112426;19;130478;-50
2023/10/16 10:36:30;;;;;;;1.08;0.70;;;;;;;20.22;43.52;102214.03;16113773;19;130290;-46
2023/10/16 10:41:54;;;;;;;1.80;0.80;;;;;;;20.31;43.31;102216.56;16112157;19;130794;-49
2023/10/16 10:47:35;;;;;;;0.75;0.60;;;;;;;20.39;43.44;102208.75;16110778;19;130067;-47
2023/10/16 10:52:57;;;;;;;2.08;0.80;;;;;;;20.42;43.42;102204.69;16110056;19;130541;-46
2023/10/16 10:58:20;;;;;;;0.93;0.60;;;;;;;20.45;43.17;102193.09;16106079;19;129764;-47
2023/10/16 11:03:46;;;;;;;3.03;0.90;;;;;;;20.45;42.82;102191.19;16108844;19;131883;-50
2023/10/16 11:09:13;;;;;;;4.18;0.90;;;;;;;20.42;43.32;102188.00;16108092;19;130146;-46
2023/10/16 11:14:36;;;;;;;2.35;0.65;;;;;;;20.38;43.20;102183.97;16108530;19;132818;-46
2023/10/16 11:20:11;;;;;;;2.38;0.80;;;;;;;20.34;42.82;102182.72;16109644;19;129637;-48
2023/10/16 11:25:33;;;;;;;2.40;0.77;;;;;;;20.27;43.49;102166.09;16110352;19;129541;-44
2023/10/16 11:30:57;;;;;;;2.78;0.70;;;;;;;20.21;43.19;102161.47;16110289;19;129710;-46
2023/10/16 11:36:23;;;;;;;2.13;1.00;;;;;;;20.13;43.78;102148.72;16106747;19;129209;-45
2023/10/16 11:41:46;;;;;;;1.98;0.90;;;;;;;20.04;43.69;102153.69;16112747;19;129701;-48
2023/10/16 11:47:09;;;;;;;6.22;0.82;;;;;;;20.00;44.00;102141.31;16107882;19;129530;-44
2023/10/16 11:52:32;;;;;;;2.75;1.00;;;;;;;19.96;43.59;102138.13;16111152;19;131644;-46
2023/10/16 11:57:56;;;;;;;2.08;0.80;;;;;;;19.91;43.92;102129.63;16108376;19;130045;-46
2023/10/16 12:03:19;;;;;;;3.27;0.93;;;;;;;19.87;43.94;102127.53;16107887;19;129601;-45
2023/10/16 12:08:41;;;;;;;2.05;1.00;;;;;;;19.84;44.01;102117.72;16106366;19;131086;-43
2023/10/16 12:14:07;;;;;;;2.80;0.90;;;;;;;19.81;44.46;102123.75;16108222;19;129595;-46
2023/10/16 12:19:28;;;;;;;;;;;;;;;19.73;44.46;102110.09;16106880;19;130062;-48
2023/10/16 12:24:50;;;;;;;1.45;0.68;;;;;;;19.75;44.37;102105.19;16110571;19;130888;-47
2023/10/16 12:30:13;;;;;;;2.17;1.00;;;;;;;19.74;44.10;102100.72;16100359;19;130174;-46
2023/10/16 12:35:36;;;;;;;2.05;0.70;;;;;;;19.77;43.98;102089.16;16105881;19;130166;-43
2023/10/16 12:40:59;;;;;;;2.28;0.70;;;;;;;19.82;44.15;102079.06;16104014;19;130088;-45
2023/10/16 12:46:21;;;;;;;2.13;0.80;;;;;;;19.88;44.14;102068.97;16104238;19;130100;-44
2023/10/16 12:51:43;;;;;;;1.77;0.93;;;;;;;19.95;43.80;102072.53;16118127;19;130671;-47
2023/10/16 12:57:06;;;;;;;1.33;0.80;;;;;;;20.02;44.07;102068.91;16122364;19;131335;-46
2023/10/16 13:02:28;;;;;;;1.80;0.90;;;;;;;20.06;43.75;102059.03;16122822;19;130180;-46
2023/10/16 13:07:50;;;;;;;1.63;0.88;;;;;;;20.09;44.02;102064.13;16120670;19;131672;-44
2023/10/16 13:13:21;;;;;;;2.15;0.70;;;;;;;20.11;43.64;102050.84;16119546;19;130817;-45
2023/10/16 13:18:43;;;;;;;1.60;0.80;;;;;;;20.13;43.79;102051.47;16120748;19;131249;-45
2023/10/16 13:24:16;;;;;;;1.25;0.70;;;;;;;20.16;43.43;102058.50;16116989;19;130865;-46
2023/10/16 13:29:40;;;;;;;1.63;0.60;;;;;;;20.17;43.45;102055.50;16117164;19;131473;-48
2023/10/16 13:35:12;;;;;;;1.77;0.60;;;;;;;20.16;43.48;102056.56;16118106;19;129720;-44
2023/10/16 13:40:35;;;;;;;4.72;1.02;;;;;;;20.16;43.54;102044.59;16113173;19;129879;-44
2023/10/16 13:45:58;;;;;;;1.90;0.70;;;;;;;20.13;43.50;102040.34;16118967;19;129522;-48
2023/10/16 13:51:20;;;;;;;1.63;0.80;;;;;;;20.07;43.45;102044.03;16117305;19;129357;-47
2023/10/16 13:56:46;;;;;;;3.22;0.70;;;;;;;20.01;42.95;102043.03;16114924;19;129568;-46
2023/10/16 14:02:08;;;;;;;1.77;0.68;;;;;;;19.95;43.38;102035.59;16115411;19;129619;-46
2023/10/16 14:07:30;;;;;;;1.52;0.68;;;;;;;19.91;43.04;102035.22;16117165;19;129424;-47
2023/10/16 14:13:10;;;;;;;1.77;0.63;;;;;;;19.85;43.43;102022.22;16117315;19;131265;-44
2023/10/16 14:18:35;;;;;;;1.42;0.65;;;;;;;19.80;43.56;102013.75;16114286;19;129428;-44
2023/10/16 14:23:57;;;;;;;1.50;0.65;;;;;;;19.76;43.78;102018.03;16114624;19;129691;-50
2023/10/16 14:29:22;;;;;;;1.30;0.50;;;;;;;19.71;43.58;102001.19;16115513;19;130152;-49
2023/10/16 14:34:47;;;;;;;1.90;0.70;;;;;;;19.66;43.80;102002.75;16112644;19;131025;-47
2023/10/16 14:40:15;;;;;;;1.30;0.60;;;;;;;19.62;43.77;101995.94;16113903;19;131495;-48
2023/10/16 14:45:38;;;;;;;1.55;0.68;;;;;;;19.57;43.74;101994.94;16112917;19;130424;-49
2023/10/16 14:51:00;;;;;;;1.65;0.60;;;;;;;19.56;43.98;102005.19;16108029;19;130629;-45
2023/10/16 14:56:22;;;;;;;1.73;0.55;;;;;;;19.57;43.70;101995.75;16113455;19;130671;-48
2023/10/16 15:01:45;;;;;;;2.35;0.77;;;;;;;19.57;43.42;101986.59;16111714;19;129526;-47
2023/10/16 15:07:11;;;;;;;3.97;0.70;;;;;;;19.56;43.24;101980.22;16115654;19;130780;-47
2023/10/16 15:12:33;;;;;;;0.82;0.52;;;;;;;19.58;43.26;101979.97;16115208;19;129450;-49
2023/10/16 15:17:57;;;;;;;1.45;0.60;;;;;;;19.65;42.65;101975.19;16116730;19;131073;-46
2023/10/16 15:23:20;;;;;;;1.08;0.50;;;;;;;19.69;42.50;101971.72;16112367;19;131579;-50
2023/10/16 15:28:42;;;;;;;6.10;0.70;;;;;;;19.73;42.66;101977.72;16115182;19;130171;-46
2023/10/16 15:34:08;;;;;;;4.30;0.90;;;;;;;19.71;42.16;101967.88;16115518;19;130035;-51
2023/10/16 15:39:32;;;;;;;3.60;1.10;;;;;;;19.76;41.81;101968.91;16112896;19;133490;-50
2023/10/16 15:44:54;;;;;;;5.05;0.88;;;;;;;19.79;41.47;101974.00;16113150;19;130044;-52
2023/10/16 15:50:16;;;;;;;5.13;0.90;;;;;;;19.83;41.61;101977.16;16110657;19;131623;-46
2023/10/16 15:55:38;;;;;;;5.18;0.90;;;;;;;19.87;41.66;101983.13;16108298;19;130210;-47
2023/10/16 16:01:00;;;;;;;3.47;0.80;;;;;;;19.93;41.48;101973.88;16106616;19;131111;-48
2023/10/16 16:06:24;;;;;;;4.57;1.23;;;;;;;19.95;41.47;101969.78;16110265;19;130618;-46
2023/10/16 16:11:46;;;;;;;8.15;0.98;;;;;;;19.94;41.61;101959.75;16107315;19;130092;-47
2023/10/16 16:17:11;;;;;;;1.83;0.85;;;;;;;19.91;41.86;101963.00;16106866;19;130475;-48
2023/10/16 16:22:33;;;;;;;3.90;0.98;;;;;;;19.88;41.51;101968.16;16107558;19;129798;-45
2023/10/16 16:27:55;;;;;;;3.88;0.90;;;;;;;19.84;42.07;101974.19;16124014;19;129433;-47
2023/10/16 16:33:17;;;;;;;2.60;0.77;;;;;;;19.78;42.16;101969.53;16123810;19;130170;-46
2023/10/16 16:38:39;;;;;;;1.60;0.70;;;;;;;19.77;41.88;101967.81;16123206;19;129480;-45
2023/10/16 16:44:01;;;;;;;4.82;0.80;;;;;;;19.79;42.35;101970.38;16119266;19;130239;-45
2023/10/16 16:49:24;;;;;;;1.88;0.63;;;;;;;19.81;42.24;101973.78;16118402;19;129708;-46
2023/10/16 16:54:49;;;;;;;5.05;0.90;;;;;;;19.87;42.03;101970.09;16116356;19;131633;-49
2023/10/16 17:00:12;;;;;;;1.35;0.60;;;;;;;19.96;42.15;101965.09;16116685;19;131379;-47
2023/10/16 17:05:36;;;;;;;4.07;0.80;;;;;;;19.98;42.49;101963.75;16118401;19;131082;-45
2023/10/16 17:10:59;;;;;;;2.13;1.00;;;;;;;19.99;42.38;101964.63;16119798;19;130079;-46
2023/10/16 17:16:21;;;;;;;1.40;0.90;;;;;;;20.04;42.25;101967.56;16123535;19;130378;-45
2023/10/16 17:21:47;;;;;;;0.90;0.63;;;;;;;20.07;42.53;101961.56;16115341;19;129620;-47
2023/10/16 17:27:09;;;;;;;2.13;0.80;;;;;;;20.12;42.56;101960.88;16121537;19;131278;-45
2023/10/16 17:32:33;;;;;;;2.38;0.70;;;;;;;20.16;42.50;101964.91;16111648;19;133037;-48
2023/10/16 17:37:55;;;;;;;3.30;0.90;;;;;;;20.22;42.81;101972.28;16115103;19;130600;-46
2023/10/16 17:43:19;;;;;;;7.13;1.00;;;;;;;20.31;42.66;101972.00;16113552;19;129465;-48
2023/10/16 17:48:44;;;;;;;5.88;1.15;;;;;;;20.39;42.50;101969.72;16116210;19;131499;-48
2023/10/16 17:54:08;;;;;;;5.97;1.03;;;;;;;20.47;42.79;101968.56;16117191;19;129946;-47
2023/10/16 17:59:32;;;;;;;9.73;1.13;;;;;;;20.53;42.51;101959.31;16116418;19;131290;-48
2023/10/16 18:04:53;;;;;;;7.30;1.40;;;;;;;20.61;42.95;101963.69;16112786;19;129657;-48
2023/10/16 18:10:18;;;;;;;6.22;1.23;;;;;;;20.64;42.80;101959.59;16116313;19;130842;-47
2023/10/16 18:15:53;;;;;;;5.38;1.25;;;;;;;20.64;42.71;101954.03;16116871;19;129422;-48
2023/10/16 18:21:15;;;;;;;8.60;0.77;;;;;;;20.59;43.06;101952.78;16114603;19;129331;-47
2023/10/16 18:26:37;;;;;;;5.50;1.02;;;;;;;20.53;42.99;101956.53;16116218;19;130107;-49
2023/10/16 18:31:59;;;;;;;5.22;1.02;;;;;;;20.48;43.22;101967.50;16114424;19;130716;-47
2023/10/16 18:37:21;;;;;;;3.15;1.00;;;;;;;20.41;43.77;101961.19;16112014;19;131034;-50
2023/10/16 18:42:43;;;;;;;7.97;1.00;;;;;;;20.37;43.47;101959.94;16111994;19;129588;-48
2023/10/16 18:48:06;;;;;;;2.60;1.05;;;;;;;20.32;43.93;101945.88;16113823;19;131128;-51
2023/10/16 18:53:28;;;;;;;4.30;0.90;;;;;;;20.26;44.18;101947.66;16114858;19;133184;-49
2023/10/16 18:58:50;;;;;;;3.33;0.80;;;;;;;20.20;44.17;101943.88;16114240;19;131108;-49
2023/10/16 19:04:12;;;;;;;5.85;1.13;;;;;;;20.17;44.47;101941.59;16110545;19;130535;-48
2023/10/16 19:09:37;;;;;;;3.10;0.90;;;;;;;20.12;44.50;101947.81;16113192;19;129485;-50
2023/10/16 19:14:59;;;;;;;2.75;0.77;;;;;;;20.09;44.50;101941.88;16108365;19;130913;-49
2023/10/16 19:20:22;;;;;;;4.82;1.27;;;;;;;20.05;45.12;101938.72;16114011;19;130018;-48
2023/10/16 19:25:45;;;;;;;4.63;1.20;;;;;;;20.08;44.69;101935.50;16114914;19;130447;-49
2023/10/16 19:31:07;;;;;;;3.78;0.93;;;;;;;20.20;44.73;101927.22;16110395;19;131459;-48
2023/10/16 19:36:29;;;;;;;6.60;1.17;;;;;;;20.35;44.16;101926.84;16111795;19;129748;-52
2023/10/16 19:41:52;;;;;;;4.38;0.90;;;;;;;20.49;44.51;101924.72;16109876;19;131180;-61
2023/10/16 19:47:15;;;;;;;9.00;1.42;;;;;;;20.60;43.99;101925.84;16109889;19;130277;-47
2023/10/16 19:52:39;;;;;;;5.03;1.20;;;;;;;20.68;44.02;101927.44;16114019;19;129443;-53
2023/10/16 19:58:05;;;;;;;3.35;1.10;;;;;;;20.66;43.72;101922.13;16114527;19;130895;-55
2023/10/16 20:03:27;;;;;;;6.25;1.10;;;;;;;20.62;44.00;101922.81;16133241;19;130142;-56
2023/10/16 20:08:50;;;;;;;10.45;1.27;;;;;;;20.53;43.83;101928.72;16127727;19;129594;-55
2023/10/16 20:14:12;;;;;;;6.55;1.10;;;;;;;20.46;44.25;101941.84;16126172;19;131062;-53
2023/10/16 20:19:34;;;;;;;5.35;0.90;;;;;;;20.38;43.86;101947.75;16124256;19;129915;-55
2023/10/16 20:25:00;;;;;;;6.35;1.10;;;;;;;20.31;44.17;101938.66;16127918;19;129612;-57
2023/10/16 20:30:24;;;;;;;2.60;1.00;;;;;;;20.22;44.29;101950.06;16129020;19;129692;-55
2023/10/16 20:35:47;;;;;;;4.22;1.15;;;;;;;20.17;44.39;101952.72;16130781;19;129699;-55
2023/10/16 20:41:12;;;;;;;4.85;1.05;;;;;;;20.10;44.30;101954.69;16127707;19;129796;-54
2023/10/16 20:46:35;;;;;;;2.92;1.10;;;;;;;20.04;44.49;101955.63;16129585;19;130753;-52
2023/10/16 20:51:58;;;;;;;4.63;1.20;;;;;;;19.99;44.04;101968.28;16125395;19;129532;-55
2023/10/16 20:57:20;;;;;;;2.33;1.13;;;;;;;19.95;44.21;101957.81;16127223;19;130029;-54
2023/10/16 21:02:44;;;;;;;3.63;1.10;;;;;;;19.90;44.75;101947.41;16126299;19;129503;-57
2023/10/16 21:08:06;;;;;;;1.85;0.93;;;;;;;19.87;44.22;101953.41;16126251;19;130282;-57
2023/10/16 21:13:28;;;;;;;3.47;1.27;;;;;;;19.82;44.12;101948.56;16125671;19;129562;-53
2023/10/16 21:18:50;;;;;;;3.15;1.15;;;;;;;19.78;44.18;101955.63;16126225;19;130098;-50
2023/10/16 21:24:13;;;;;;;4.22;1.45;;;;;;;19.76;44.69;101963.34;16121888;19;131104;-57
2023/10/16 21:29:35;;;;;;;4.88;1.40;;;;;;;19.73;44.53;101962.97;16121523;19;129563;-52
2023/10/16 21:34:56;;;;;;;3.10;1.20;;;;;;;19.69;44.43;101966.19;16122997;19;130710;-56
2023/10/16 21:40:21;;;;;;;4.18;1.13;;;;;;;19.66;44.26;101961.09;16122469;19;129510;-52
2023/10/16 21:45:44;;;;;;;2.75;1.40;;;;;;;19.64;44.38;101957.72;16123001;19;129584;-53
2023/10/16 21:51:06;;;;;;;3.55;1.27;;;;;;;19.61;44.16;101941.50;16124973;19;129487;-55
2023/10/16 21:56:28;;;;;;;4.88;1.45;;;;;;;19.58;44.09;101932.78;16123539;19;129486;-56
2023/10/16 22:01:51;;;;;;;4.32;1.48;;;;;;;19.54;44.12;101940.72;16119730;19;129427;-54
2023/10/16 22:07:13;;;;;;;4.63;1.50;;;;;;;19.52;44.36;101945.66;16120727;19;130873;-56
2023/10/16 22:12:37;;;;;;;2.03;1.20;;;;;;;19.50;44.30;101940.34;16122796;19;129549;-66
2023/10/16 22:17:59;;;;;;;2.92;1.58;;;;;;;19.48;44.25;101941.63;16117651;19;129928;-67
2023/10/16 22:23:21;;;;;;;2.55;1.30;;;;;;;19.45;44.45;101939.28;16118606;19;129689;-53
2023/10/16 22:28:44;;;;;;;2.45;1.10;;;;;;;19.43;44.48;101920.09;16119426;19;131323;-54
2023/10/16 22:34:09;;;;;;;3.58;1.23;;;;;;;19.42;44.23;101893.44;16117241;19;130442;-54
2023/10/16 22:39:32;;;;;;;2.70;1.38;;;;;;;19.40;44.23;101895.59;16120034;19;129484;-55
2023/10/16 22:44:54;;;;;;;3.00;1.50;;;;;;;19.39;44.50;101899.44;16118970;19;131116;-54
2023/10/16 22:50:17;;;;;;;2.25;1.20;;;;;;;19.37;44.60;101901.59;16116433;19;129987;-55
2023/10/16 22:55:39;;;;;;;2.80;1.23;;;;;;;19.34;44.34;101908.44;16119890;19;130840;-53
2023/10/16 23:01:01;;;;;;;2.30;1.50;;;;;;;19.34;44.57;101900.13;16115621;19;129787;-55
2023/10/16 23:06:23;;;;;;;2.92;1.60;;;;;;;19.31;44.34;101906.16;16116417;19;129683;-53
2023/10/16 23:11:48;;;;;;;1.80;1.40;;;;;;;19.30;44.30;101906.34;16114958;19;129634;-53
2023/10/16 23:17:16;;;;;;;4.13;1.52;;;;;;;19.28;44.24;101908.50;16112945;19;130450;-51
2023/10/16 23:22:39;;;;;;;2.72;1.58;;;;;;;19.27;44.38;101912.34;16109473;19;130303;-51
2023/10/16 23:28:04;;;;;;;4.88;1.65;;;;;;;19.24;44.32;101924.75;16112976;19;129579;-53
2023/10/16 23:33:26;;;;;;;3.55;1.40;;;;;;;19.21;44.10;101909.41;16109502;19;130016;-51
2023/10/16 23:38:49;;;;;;;2.55;1.58;;;;;;;19.21;44.19;101898.31;16121108;19;129903;-51
2023/10/16 23:44:21;;;;;;;3.53;1.52;;;;;;;19.21;44.19;101897.47;16114008;19;130582;-56
2023/10/16 23:49:46;;;;;;;3.67;1.27;;;;;;;19.19;44.70;101905.16;16111134;19;130628;-53
2023/10/16 23:55:14;;;;;;;2.92;1.52;;;;;;;19.17;44.64;101910.06;16112299;19;130202;-55
